Norris, SC (29667)

6:30 PM EDT on July 25, 2016 (GMT -0400)
Piney Trail | | Change Station

Elev 965 ft 34.76 °N, 82.71 °W | Updated 12 minutes ago

Clear
Clear
93.0 °F
Feels Like 101 °F
N
1.7
Wind Variable Wind from South

Today
High -- | Low -- °F
--% Chance of Precip.
Yesterday
High -- | Low -- °F
Precip. -- in
Pressure 29.97 in
Visibility 10.0 miles
Clouds Clear
Heat Index 101 °F
Dew Point 72 °F
Humidity 50%
Rainfall 0.00 in
Snow Depth Not available.
6:36 AM 8:38 PM
Waning Gibbous, 62% visible
METAR KLQK 252215Z AUTO 19005KT 10SM CLR 33/21 A2997 RMK AO2 T03340205
Pressure 29.97 in
Visibility 10.0 miles
Clouds Clear
Heat Index 101 °F
Dew Point 72 °F
Humidity 50%
Rainfall 0.00 in
Snow Depth Not available.
6:36 AM 8:38 PM
Waning Gibbous, 62% visible
METAR KLQK 252215Z AUTO 19005KT 10SM CLR 33/21 A2997 RMK AO2 T03340205
Record highs are possible for parts of the Northeast Monday and Tuesday, as parts of the central U.S. take a little breather from the worst of summer's dog day heat.

Expansive high pressure in the upper atmosphere will focus on parts of the East and West this week, sending heat indices well into the triple digits from the Mid-Atlantic states into the South.

10-Day Weather Forecast

Almanac

Astronomy

Jul. 25, 2016 Rise Set
Actual Time
Civil Twilight
Nautical Twilight
Astronomical Twilight
Moon
Length of Visible Light
Length of Day
Tomorrow will be .
, % of the Moon is Illuminated

Today's Extremes

State Highs State Lows

Community

WunderPhotos

Upload Photos

1,927,429 photos uploaded!

WunderBlog® & News

Nearby

Air Quality

  Air Quality AQ Index Pollutant
Not available.

Snow Depth

Station Depth Elevation

Earthquake Activity

City Distance Mag. Time & Date
Minimum magnitude displayed is 2.5.

Coastal Water Temperatures

Place Temperature

Stations

Nearby Weather Stations

Station Location Temp. Windchill Dew Point Humidity Wind Precip. Elev Updated Type
                   

Watches & Warnings

There are currently no watches in effect.